createdAt,value
2017-10-21T00:00:21.681Z,14.07
2017-10-21T00:02:48.559Z,14.30
2017-10-21T00:05:15.420Z,13.70
2017-10-21T00:07:42.235Z,13.23
2017-10-21T00:10:09.079Z,13.37
2017-10-21T00:12:35.973Z,13.80
2017-10-21T00:15:02.811Z,14.67
2017-10-21T00:17:29.652Z,13.47
2017-10-21T00:19:56.835Z,14.37
2017-10-21T00:22:23.982Z,13.63
2017-10-21T00:24:50.873Z,11.73
2017-10-21T00:27:17.716Z,13.90
2017-10-21T00:29:44.581Z,13.77
2017-10-21T00:32:11.765Z,15.50
2017-10-21T00:34:38.587Z,13.87
2017-10-21T00:37:05.408Z,14.20
2017-10-21T00:39:32.600Z,16.73
2017-10-21T00:41:59.419Z,16.03
2017-10-21T00:44:26.313Z,12.70
2017-10-21T00:46:53.171Z,13.80
2017-10-21T00:49:20.275Z,14.70
2017-10-21T00:51:47.088Z,12.30
2017-10-21T00:54:14.276Z,13.70
2017-10-21T00:56:41.137Z,10.47
2017-10-21T00:59:08.007Z,12.77
2017-10-21T01:01:34.904Z,11.13
2017-10-21T01:04:01.760Z,11.80
2017-10-21T01:06:28.608Z,10.70
2017-10-21T01:08:55.845Z,10.83
2017-10-21T01:11:22.997Z,12.80
2017-10-21T01:13:49.831Z,12.07
2017-10-21T01:16:16.691Z,11.53
2017-10-21T01:18:43.573Z,12.20
2017-10-21T01:21:10.668Z,12.80
2017-10-21T01:23:37.592Z,11.90
2017-10-21T01:26:04.458Z,13.43
2017-10-21T01:28:31.352Z,11.30
2017-10-21T01:30:58.271Z,13.10
2017-10-21T01:33:25.132Z,12.30
2017-10-21T01:35:52.352Z,12.43
2017-10-21T01:38:19.262Z,11.57
2017-10-21T01:40:46.149Z,11.37
2017-10-21T01:43:13.284Z,13.60
2017-10-21T01:45:40.167Z,12.80
2017-10-21T01:48:07.047Z,12.23
2017-10-21T01:50:33.903Z,11.50
2017-10-21T01:53:00.780Z,13.03
2017-10-21T01:55:27.639Z,20.40
2017-10-21T01:57:54.517Z,15.30
2017-10-21T02:00:21.701Z,12.60
2017-10-21T02:02:48.847Z,11.37
2017-10-21T02:05:15.723Z,11.10
2017-10-21T02:07:42.843Z,13.50
2017-10-21T02:10:10.575Z,12.50
2017-10-21T02:12:37.427Z,11.93
2017-10-21T02:15:04.353Z,11.03
2017-10-21T02:17:31.215Z,10.60
2017-10-21T02:19:58.124Z,11.47
2017-10-21T02:22:25.036Z,12.77
2017-10-21T02:24:51.928Z,11.73
2017-10-21T02:27:19.019Z,10.50
2017-10-21T02:29:45.879Z,10.40
2017-10-21T02:32:13.021Z,11.33
2017-10-21T02:34:39.873Z,10.63
2017-10-21T02:37:06.780Z,9.80
2017-10-21T02:39:33.671Z,12.70
2017-10-21T02:42:00.530Z,10.27
2017-10-21T02:44:27.450Z,9.30
2017-10-21T02:46:54.341Z,8.67
2017-10-21T02:49:21.156Z,8.83
2017-10-21T02:51:48.268Z,9.07
2017-10-21T02:54:15.324Z,9.00
2017-10-21T02:56:42.164Z,9.00
2017-10-21T02:59:09.020Z,8.80
2017-10-21T03:01:35.835Z,10.10
2017-10-21T03:04:02.681Z,8.70
2017-10-21T03:06:29.511Z,8.43
2017-10-21T03:08:56.579Z,8.77
2017-10-21T03:11:23.429Z,9.20
2017-10-21T03:13:50.320Z,7.10
2017-10-21T03:16:17.417Z,8.27
2017-10-21T03:18:44.563Z,8.40
2017-10-21T03:21:11.452Z,8.07
2017-10-21T03:23:38.275Z,8.77
2017-10-21T03:26:05.091Z,7.73
2017-10-21T03:28:32.251Z,10.60
2017-10-21T03:30:59.099Z,8.40
2017-10-21T03:33:25.965Z,8.90
2017-10-21T03:35:52.839Z,8.37
2017-10-21T03:38:19.712Z,8.30
2017-10-21T03:40:46.564Z,8.00
2017-10-21T03:43:13.440Z,8.30
2017-10-21T03:45:40.296Z,7.07
2017-10-21T03:48:07.149Z,7.70
2017-10-21T03:50:34.089Z,6.53
2017-10-21T03:53:00.934Z,8.03
2017-10-21T03:55:27.743Z,7.77
2017-10-21T03:57:54.616Z,7.37
2017-10-21T04:00:21.724Z,8.10
2017-10-21T04:02:48.585Z,6.70
2017-10-21T04:05:15.444Z,7.20
2017-10-21T04:07:42.292Z,8.67
2017-10-21T04:10:09.120Z,8.27
2017-10-21T04:12:36.247Z,7.77
2017-10-21T04:15:03.392Z,7.90
2017-10-21T04:17:30.550Z,8.30
2017-10-21T04:19:57.404Z,7.53
2017-10-21T04:22:24.541Z,8.60
2017-10-21T04:24:51.697Z,8.20
2017-10-21T04:27:18.841Z,7.70
2017-10-21T04:29:45.650Z,8.80
2017-10-21T04:32:12.459Z,7.83
2017-10-21T04:34:39.576Z,9.07
2017-10-21T04:37:06.623Z,8.10
2017-10-21T04:39:33.773Z,9.63
2017-10-21T04:42:00.604Z,8.17
2017-10-21T04:44:27.467Z,9.43
2017-10-21T04:46:54.603Z,9.03
2017-10-21T04:49:21.473Z,9.27
2017-10-21T04:51:48.606Z,7.77
2017-10-21T04:54:15.431Z,8.63
2017-10-21T04:56:42.490Z,8.60
2017-10-21T04:59:09.357Z,7.60
2017-10-21T05:01:36.192Z,9.03
2017-10-21T05:04:03.044Z,8.30
2017-10-21T05:06:29.864Z,7.53
2017-10-21T05:08:57.011Z,8.30
2017-10-21T05:11:23.837Z,8.50
2017-10-21T05:13:51.012Z,7.53
2017-10-21T05:16:18.156Z,7.80
2017-10-21T05:18:45.307Z,7.87
2017-10-21T05:21:12.168Z,8.67
2017-10-21T05:23:39.016Z,7.20
2017-10-21T05:26:05.821Z,9.00
2017-10-21T05:28:32.883Z,7.23
2017-10-21T05:30:59.704Z,8.17
2017-10-21T05:33:26.881Z,7.90
2017-10-21T05:35:54.032Z,8.50
2017-10-21T05:38:21.206Z,7.60
2017-10-21T05:40:48.048Z,8.33
2017-10-21T05:43:14.915Z,9.03
2017-10-21T05:45:42.020Z,9.37
2017-10-21T05:48:08.828Z,7.63
2017-10-21T05:50:35.631Z,9.07
2017-10-21T05:53:02.452Z,7.80
2017-10-21T05:55:29.259Z,8.20
2017-10-21T05:57:56.088Z,8.60
2017-10-21T06:00:22.915Z,9.40
2017-10-21T06:02:49.780Z,8.13
2017-10-21T06:05:16.630Z,7.53
2017-10-21T06:07:43.472Z,7.80
2017-10-21T06:10:10.657Z,7.43
2017-10-21T06:12:37.467Z,9.30
2017-10-21T06:15:04.653Z,7.50
2017-10-21T06:17:35.589Z,7.40
2017-10-21T06:20:02.736Z,6.80
2017-10-21T06:22:29.611Z,8.53
2017-10-21T06:24:56.449Z,7.60
2017-10-21T06:27:23.283Z,7.60
2017-10-21T06:29:50.154Z,8.33
2017-10-21T06:32:16.992Z,7.97
2017-10-21T06:34:44.099Z,7.97
2017-10-21T06:37:10.957Z,7.53
2017-10-21T06:39:37.783Z,6.67
2017-10-21T06:42:04.771Z,5.83
2017-10-21T06:44:31.900Z,6.60
2017-10-21T06:46:58.824Z,6.73
2017-10-21T06:49:25.672Z,7.37
2017-10-21T06:51:52.552Z,5.77
2017-10-21T06:54:19.669Z,6.00
2017-10-21T06:56:46.495Z,5.70
2017-10-21T06:59:13.316Z,5.30
2017-10-21T07:01:40.165Z,5.50
2017-10-21T07:04:07.453Z,6.03
2017-10-21T07:06:34.602Z,7.43
2017-10-21T07:09:01.456Z,6.77
2017-10-21T07:11:28.591Z,6.60
2017-10-21T07:13:55.395Z,5.20
2017-10-21T07:16:22.211Z,6.00
2017-10-21T07:18:49.053Z,6.93
2017-10-21T07:21:15.871Z,6.03
2017-10-21T07:23:42.676Z,7.70
2017-10-21T07:26:09.750Z,6.50
2017-10-21T07:28:36.605Z,8.03
2017-10-21T07:31:03.423Z,6.83
2017-10-21T07:33:30.529Z,7.90
2017-10-21T07:35:57.616Z,5.67
2017-10-21T07:38:24.788Z,5.97
2017-10-21T07:40:51.900Z,6.43
2017-10-21T07:43:18.732Z,5.77
2017-10-21T07:45:45.552Z,5.80
2017-10-21T07:48:12.776Z,5.80
2017-10-21T07:50:39.929Z,5.67
2017-10-21T07:53:06.736Z,5.50
2017-10-21T07:55:33.610Z,4.57
2017-10-21T07:58:00.453Z,6.67
2017-10-21T08:00:27.496Z,5.23
2017-10-21T08:02:54.563Z,6.40
2017-10-21T08:05:21.393Z,6.37
2017-10-21T08:07:48.257Z,4.60
2017-10-21T08:10:15.134Z,5.53
2017-10-21T08:12:41.995Z,5.97
2017-10-21T08:15:08.853Z,4.60
2017-10-21T08:17:35.708Z,4.80
2017-10-21T08:22:47.007Z,5.10
2017-10-21T08:25:13.816Z,4.53
2017-10-21T08:27:40.602Z,4.90
2017-10-21T08:30:07.431Z,6.00
2017-10-21T08:32:34.259Z,4.70
2017-10-21T08:35:01.424Z,11.47
2017-10-21T08:37:28.461Z,8.73
2017-10-21T08:39:55.515Z,4.77
2017-10-21T08:42:22.667Z,4.60
2017-10-21T08:44:49.503Z,5.63
2017-10-21T08:47:16.663Z,5.13
2017-10-21T08:49:43.466Z,4.00
2017-10-21T08:52:10.279Z,4.87
2017-10-21T08:54:37.107Z,3.90
2017-10-21T08:57:03.882Z,4.30
2017-10-21T08:59:31.092Z,5.07
2017-10-21T09:01:57.941Z,3.90
2017-10-21T09:04:24.796Z,4.63
2017-10-21T09:06:51.643Z,5.20
2017-10-21T09:11:51.668Z,5.00
2017-10-21T09:14:18.510Z,3.93
2017-10-21T09:16:45.551Z,5.23
2017-10-21T09:19:12.421Z,5.70
2017-10-21T09:21:39.537Z,5.50
2017-10-21T09:24:06.818Z,4.90
2017-10-21T09:26:33.977Z,5.60
2017-10-21T09:29:00.822Z,4.97
2017-10-21T09:31:27.631Z,4.47
2017-10-21T09:33:54.777Z,4.30
2017-10-21T09:36:21.928Z,5.40
2017-10-21T09:38:48.742Z,4.17
2017-10-21T09:41:15.841Z,4.87
2017-10-21T09:43:42.650Z,5.33
2017-10-21T09:46:09.466Z,5.40
2017-10-21T09:48:36.290Z,4.50
2017-10-21T09:51:03.744Z,5.37
2017-10-21T09:53:32.725Z,5.60
2017-10-21T09:56:03.214Z,5.70
2017-10-21T09:58:33.506Z,5.57
2017-10-21T10:01:02.797Z,5.27
2017-10-21T10:03:33.796Z,5.57
2017-10-21T10:06:03.182Z,5.07
2017-10-21T10:08:32.999Z,5.57
2017-10-21T10:11:05.919Z,4.83
2017-10-21T10:13:38.175Z,4.80
2017-10-21T10:16:09.133Z,4.60
2017-10-21T10:18:41.774Z,5.33
2017-10-21T10:21:11.266Z,4.90
2017-10-21T10:23:39.226Z,5.07
2017-10-21T10:26:06.022Z,4.50
2017-10-21T10:28:32.882Z,4.07
2017-10-21T10:30:59.686Z,18.80
2017-10-21T10:33:26.727Z,7.33
2017-10-21T10:35:53.562Z,7.47
2017-10-21T10:38:20.410Z,5.47
2017-10-21T10:40:47.214Z,5.20
2017-10-21T10:43:14.298Z,5.13
2017-10-21T10:45:41.220Z,4.47
2017-10-21T10:48:08.011Z,4.37
2017-10-21T10:50:35.146Z,3.80
2017-10-21T10:53:01.944Z,4.80
2017-10-21T10:55:28.757Z,4.03
2017-10-21T10:57:55.582Z,4.63
2017-10-21T11:00:22.715Z,4.57
2017-10-21T11:02:49.555Z,4.03
2017-10-21T11:05:16.373Z,4.60
2017-10-21T11:07:43.179Z,4.53
2017-10-21T11:10:10.284Z,4.43
2017-10-21T11:12:37.100Z,4.33
2017-10-21T11:15:04.175Z,4.17
2017-10-21T11:17:30.954Z,3.77
2017-10-21T11:19:57.761Z,4.53
2017-10-21T11:22:24.806Z,4.70
2017-10-21T11:24:51.861Z,4.53
2017-10-21T11:27:18.659Z,3.67
2017-10-21T11:29:45.434Z,4.97
2017-10-21T11:32:12.486Z,4.40
2017-10-21T11:37:23.999Z,3.90
2017-10-21T11:39:50.801Z,4.40
2017-10-21T11:42:17.611Z,3.70
2017-10-21T11:44:44.731Z,4.57
2017-10-21T11:47:11.547Z,4.83
2017-10-21T11:49:38.350Z,4.80
2017-10-21T11:52:05.983Z,4.97
2017-10-21T11:54:33.751Z,5.03
2017-10-21T11:57:00.610Z,4.50
2017-10-21T11:59:27.523Z,5.70
2017-10-21T12:01:54.330Z,5.37
2017-10-21T12:04:21.134Z,4.77
2017-10-21T12:06:47.958Z,5.60
2017-10-21T12:09:14.766Z,4.90
2017-10-21T12:11:41.568Z,4.30
2017-10-21T12:14:08.692Z,5.00
2017-10-21T12:16:35.949Z,5.20
2017-10-21T12:19:02.746Z,5.07
2017-10-21T12:21:29.593Z,5.03
2017-10-21T12:23:56.394Z,4.33
2017-10-21T12:26:23.206Z,3.90
2017-10-21T12:28:50.054Z,4.00
2017-10-21T12:31:16.853Z,4.63
2017-10-21T12:33:43.659Z,4.33
2017-10-21T12:36:10.486Z,4.30
2017-10-21T12:38:37.816Z,5.10
2017-10-21T12:41:04.613Z,4.30
2017-10-21T12:43:31.442Z,4.23
2017-10-21T12:45:58.250Z,4.73
2017-10-21T12:48:25.058Z,4.20
2017-10-21T12:50:51.885Z,3.60
2017-10-21T12:53:18.694Z,4.50
2017-10-21T12:55:45.624Z,4.20
2017-10-21T12:58:12.437Z,4.10
2017-10-21T13:00:39.254Z,4.47
2017-10-21T13:03:06.050Z,4.90
2017-10-21T13:05:32.881Z,4.93
2017-10-21T13:07:59.682Z,5.23
2017-10-21T13:10:26.495Z,4.90
2017-10-21T13:12:53.642Z,4.90
2017-10-21T13:15:20.690Z,7.20
2017-10-21T13:17:47.490Z,4.97
2017-10-21T13:20:14.315Z,5.73
2017-10-21T13:22:41.120Z,4.37
2017-10-21T13:25:08.166Z,5.50
2017-10-21T13:27:34.998Z,5.03
2017-10-21T13:30:02.058Z,6.97
2017-10-21T13:32:28.858Z,5.60
2017-10-21T13:34:55.946Z,4.33
2017-10-21T13:37:22.758Z,5.50
2017-10-21T13:39:49.838Z,4.77
2017-10-21T13:42:16.667Z,4.63
2017-10-21T13:44:43.470Z,4.93
2017-10-21T13:47:10.570Z,4.93
2017-10-21T13:49:37.398Z,4.77
2017-10-21T13:52:04.217Z,5.73
2017-10-21T13:54:31.324Z,5.00
2017-10-21T13:56:58.454Z,5.27
2017-10-21T13:59:25.258Z,4.67
2017-10-21T14:01:52.071Z,4.77
2017-10-21T14:04:18.908Z,4.60
2017-10-21T14:06:46.039Z,4.33
2017-10-21T14:09:12.842Z,4.53
2017-10-21T14:11:39.695Z,5.87
2017-10-21T14:14:06.490Z,4.63
2017-10-21T14:16:33.610Z,5.03
2017-10-21T14:19:00.767Z,5.30
2017-10-21T14:21:27.588Z,4.40
2017-10-21T14:23:54.390Z,5.20
2017-10-21T14:26:21.224Z,7.23
2017-10-21T14:28:48.026Z,5.43
2017-10-21T14:31:15.179Z,4.67
2017-10-21T14:33:42.007Z,4.77
2017-10-21T14:36:08.818Z,5.33
2017-10-21T14:38:35.914Z,5.40
2017-10-21T14:41:02.738Z,4.93
2017-10-21T14:43:29.537Z,6.30
2017-10-21T14:45:56.350Z,5.47
2017-10-21T14:48:23.166Z,6.30
2017-10-21T14:50:50.193Z,5.50
2017-10-21T14:53:16.994Z,6.30
2017-10-21T14:55:43.819Z,5.90
2017-10-21T14:58:10.640Z,6.30
2017-10-21T15:00:37.454Z,7.07
2017-10-21T15:03:04.325Z,5.60
2017-10-21T15:05:31.130Z,7.00
2017-10-21T15:07:57.991Z,5.93
2017-10-21T15:10:24.827Z,7.23
2017-10-21T15:12:51.650Z,8.60
2017-10-21T15:15:18.770Z,9.93
2017-10-21T15:17:45.921Z,7.90
2017-10-21T15:20:12.777Z,8.00
2017-10-21T15:22:39.594Z,7.93
2017-10-21T15:25:06.413Z,7.73
2017-10-21T15:27:33.218Z,9.00
2017-10-21T15:30:00.043Z,8.87
2017-10-21T15:32:26.871Z,8.93
2017-10-21T15:34:53.924Z,8.77
2017-10-21T15:37:20.726Z,8.63
2017-10-21T15:39:47.574Z,10.03
2017-10-21T15:42:14.375Z,9.77
2017-10-21T15:44:41.184Z,9.80
2017-10-21T15:47:08.342Z,9.50
2017-10-21T15:49:35.148Z,10.47
2017-10-21T15:52:01.959Z,10.40
2017-10-21T15:54:28.813Z,10.27
2017-10-21T15:56:55.674Z,10.23
2017-10-21T15:59:22.982Z,9.93
2017-10-21T16:01:50.120Z,11.70
2017-10-21T16:04:16.929Z,10.23
2017-10-21T16:06:43.730Z,11.57
2017-10-21T16:09:10.569Z,11.50
2017-10-21T16:11:37.377Z,13.23
2017-10-21T16:14:04.244Z,9.97
2017-10-21T16:16:31.066Z,11.60
2017-10-21T16:18:58.122Z,11.90
2017-10-21T16:21:24.937Z,12.40
2017-10-21T16:23:51.766Z,12.53
2017-10-21T16:26:18.587Z,15.73
2017-10-21T16:28:45.420Z,12.60
2017-10-21T16:31:12.551Z,13.50
2017-10-21T16:33:39.389Z,13.00
2017-10-21T16:36:06.276Z,11.27
2017-10-21T16:38:33.153Z,12.97
2017-10-21T16:41:00.233Z,13.13
2017-10-21T16:43:27.119Z,12.37
2017-10-21T16:45:54.225Z,12.40
2017-10-21T16:48:21.059Z,12.07
2017-10-21T16:50:47.873Z,12.90
2017-10-21T16:53:15.001Z,11.80
2017-10-21T16:55:41.843Z,11.73
2017-10-21T16:58:08.676Z,11.53
2017-10-21T17:00:35.567Z,11.80
2017-10-21T17:03:02.706Z,13.03
2017-10-21T17:05:29.584Z,11.60
2017-10-21T17:07:56.431Z,11.60
2017-10-21T17:10:23.276Z,11.03
2017-10-21T17:12:50.136Z,10.80
2017-10-21T17:15:17.019Z,13.27
2017-10-21T17:17:43.885Z,12.20
2017-10-21T17:20:10.789Z,11.27
2017-10-21T17:22:37.665Z,12.00
2017-10-21T17:25:04.517Z,11.90
2017-10-21T17:27:31.352Z,12.43
2017-10-21T17:29:58.525Z,14.73
2017-10-21T17:32:25.372Z,12.40
2017-10-21T17:34:52.510Z,12.27
2017-10-21T17:37:19.595Z,12.80
2017-10-21T17:39:46.713Z,13.20
2017-10-21T17:42:13.532Z,12.20
2017-10-21T17:44:40.396Z,11.07
2017-10-21T17:47:07.460Z,12.60
2017-10-21T17:49:34.272Z,12.63
2017-10-21T17:52:01.160Z,11.30
2017-10-21T17:54:28.019Z,11.70
2017-10-21T17:56:54.885Z,11.13
2017-10-21T17:59:22.072Z,10.60
2017-10-21T18:01:48.903Z,10.57
2017-10-21T18:04:15.727Z,10.80
2017-10-21T18:06:42.649Z,13.33
2017-10-21T18:09:09.473Z,24.40
2017-10-21T18:11:36.308Z,11.43
2017-10-21T18:14:03.181Z,10.60
2017-10-21T18:16:30.020Z,10.60
2017-10-21T18:18:56.845Z,10.00
2017-10-21T18:21:23.695Z,10.40
2017-10-21T18:23:50.516Z,10.67
2017-10-21T18:26:17.580Z,11.00
2017-10-21T18:28:44.453Z,11.43
2017-10-21T18:31:11.543Z,14.17
2017-10-21T18:33:38.396Z,14.50
2017-10-21T18:36:05.269Z,14.40
2017-10-21T18:38:32.119Z,15.40
2017-10-21T18:40:58.976Z,13.50
2017-10-21T18:43:25.880Z,12.63
2017-10-21T18:45:52.718Z,12.60
2017-10-21T18:48:19.556Z,11.80
2017-10-21T18:50:46.388Z,9.03
2017-10-21T18:53:13.207Z,10.20
2017-10-21T18:55:40.384Z,10.10
2017-10-21T18:58:07.228Z,9.20
2017-10-21T19:00:34.081Z,10.17
2017-10-21T19:03:00.968Z,11.10
2017-10-21T19:05:28.068Z,9.60
2017-10-21T19:07:54.878Z,8.73
2017-10-21T19:10:22.060Z,11.33
2017-10-21T19:12:48.936Z,9.80
2017-10-21T19:15:15.779Z,10.07
2017-10-21T19:17:42.892Z,9.30
2017-10-21T19:20:09.744Z,8.60
2017-10-21T19:22:36.605Z,10.00
2017-10-21T19:25:03.733Z,8.60
2017-10-21T19:27:30.616Z,8.80
2017-10-21T19:29:57.468Z,9.60
2017-10-21T19:32:24.562Z,9.60
2017-10-21T19:34:51.402Z,9.70
2017-10-21T19:37:18.214Z,9.40
2017-10-21T19:39:45.061Z,8.83
2017-10-21T19:42:12.249Z,10.00
2017-10-21T19:44:39.080Z,9.63
2017-10-21T19:47:05.884Z,8.20
2017-10-21T19:49:33.317Z,9.30
2017-10-21T19:52:00.574Z,10.53
2017-10-21T19:54:27.581Z,10.37
2017-10-21T19:56:54.744Z,10.70
2017-10-21T19:59:21.587Z,10.63
2017-10-21T20:01:48.410Z,10.37
2017-10-21T20:04:15.294Z,10.67
2017-10-21T20:06:42.131Z,11.20
2017-10-21T20:09:09.259Z,10.60
2017-10-21T20:11:36.154Z,11.80
2017-10-21T20:14:03.010Z,11.90
2017-10-21T20:16:29.912Z,10.10
2017-10-21T20:18:57.043Z,11.97
2017-10-21T20:21:23.902Z,11.47
2017-10-21T20:23:50.732Z,10.17
2017-10-21T20:26:17.628Z,10.87
2017-10-21T20:28:44.457Z,12.03
2017-10-21T20:31:11.316Z,10.33
2017-10-21T20:33:38.517Z,11.13
2017-10-21T20:36:05.373Z,11.80
2017-10-21T20:38:32.253Z,10.67
2017-10-21T20:40:59.107Z,10.77
2017-10-21T20:43:25.966Z,11.47
2017-10-21T20:45:53.036Z,10.03
2017-10-21T20:48:19.871Z,10.53
2017-10-21T20:50:46.726Z,12.63
2017-10-21T20:53:13.536Z,10.90
2017-10-21T20:55:40.409Z,11.50
2017-10-21T20:58:07.270Z,11.43
2017-10-21T21:00:34.405Z,11.27
2017-10-21T21:03:01.274Z,10.57
2017-10-21T21:05:28.391Z,12.67
2017-10-21T21:07:55.211Z,11.57
2017-10-21T21:10:22.055Z,11.23
2017-10-21T21:12:49.131Z,12.57
2017-10-21T21:15:15.990Z,12.43
2017-10-21T21:17:42.864Z,11.80
2017-10-21T21:20:09.726Z,12.30
2017-10-21T21:22:36.577Z,11.97
2017-10-21T21:25:03.445Z,18.40
2017-10-21T21:27:30.301Z,20.77
2017-10-21T21:29:57.156Z,13.47
2017-10-21T21:32:24.033Z,12.30
2017-10-21T21:34:50.910Z,12.10
2017-10-21T21:37:17.733Z,13.70
2017-10-21T21:39:44.819Z,13.17
2017-10-21T21:42:11.687Z,13.40
2017-10-21T21:44:38.512Z,13.63
2017-10-21T21:47:05.383Z,14.17
2017-10-21T21:49:32.216Z,14.50
2017-10-21T21:51:59.031Z,17.40
2017-10-21T21:54:25.872Z,17.40
2017-10-21T21:56:52.903Z,16.67
2017-10-21T21:59:19.800Z,11.27
2017-10-21T22:01:46.662Z,13.03
2017-10-21T22:04:13.491Z,10.53
2017-10-21T22:06:40.324Z,11.30
2017-10-21T22:09:07.175Z,9.97
2017-10-21T22:11:34.149Z,11.83
2017-10-21T22:14:00.934Z,9.33
2017-10-21T22:16:27.749Z,9.07
2017-10-21T22:18:54.565Z,9.13
2017-10-21T22:21:21.369Z,10.20
2017-10-21T22:23:48.177Z,10.53
2017-10-21T22:26:15.275Z,8.80
2017-10-21T22:28:42.430Z,9.50
2017-10-21T22:31:09.535Z,9.10
2017-10-21T22:33:36.740Z,8.57
2017-10-21T22:36:03.745Z,9.27
2017-10-21T22:38:30.538Z,9.20
2017-10-21T22:40:57.377Z,9.30
2017-10-21T22:43:24.567Z,8.87
2017-10-21T22:45:51.370Z,6.63
2017-10-21T22:48:18.161Z,9.90
2017-10-21T22:50:45.004Z,10.20
2017-10-21T22:53:11.918Z,8.93
2017-10-21T22:55:38.782Z,10.60
2017-10-21T22:58:05.594Z,11.30
2017-10-21T23:00:32.673Z,9.97
2017-10-21T23:02:59.507Z,10.17
2017-10-21T23:05:26.562Z,10.23
2017-10-21T23:07:53.373Z,9.17
2017-10-21T23:10:20.457Z,9.17
2017-10-21T23:12:47.276Z,10.47
2017-10-21T23:15:14.456Z,11.37
2017-10-21T23:17:41.604Z,10.83
2017-10-21T23:20:08.427Z,12.33
2017-10-21T23:22:35.999Z,12.80
2017-10-21T23:25:02.824Z,13.40
2017-10-21T23:27:29.891Z,11.87
2017-10-21T23:29:56.736Z,13.47
2017-10-21T23:32:23.520Z,16.70
2017-10-21T23:34:50.626Z,14.50
2017-10-21T23:37:17.480Z,17.87
2017-10-21T23:39:44.266Z,17.17
2017-10-21T23:42:11.084Z,17.60
2017-10-21T23:44:37.947Z,18.40
2017-10-21T23:47:05.055Z,16.17
2017-10-21T23:49:31.833Z,16.37
2017-10-21T23:51:58.943Z,18.00
2017-10-21T23:54:26.092Z,20.40
2017-10-21T23:56:52.907Z,20.00
2017-10-21T23:59:19.734Z,22.13
